createdAt,value
2022-11-17T00:01:40.045Z,99.90
2022-11-17T00:04:08.554Z,99.90
2022-11-17T00:06:37.051Z,99.90
2022-11-17T00:09:05.574Z,99.90
2022-11-17T00:11:49.296Z,99.90
2022-11-17T00:14:37.006Z,99.90
2022-11-17T00:17:07.991Z,99.90
2022-11-17T00:19:54.193Z,99.90
2022-11-17T00:22:23.142Z,99.90
2022-11-17T00:24:51.845Z,99.90
2022-11-17T00:27:21.686Z,99.90
2022-11-17T00:29:50.210Z,99.90
2022-11-17T00:32:38.054Z,99.90
2022-11-17T00:35:07.940Z,99.90
2022-11-17T00:37:59.694Z,99.90
2022-11-17T00:40:28.366Z,99.90
2022-11-17T00:42:58.228Z,99.90
2022-11-17T00:45:26.694Z,99.90
2022-11-17T00:47:55.179Z,99.90
2022-11-17T00:50:24.232Z,99.90
2022-11-17T00:52:52.704Z,99.90
2022-11-17T00:55:21.279Z,99.90
2022-11-17T00:57:49.793Z,99.90
2022-11-17T01:00:22.302Z,99.90
2022-11-17T01:02:50.775Z,99.90
2022-11-17T01:05:19.486Z,99.90
2022-11-17T01:07:48.112Z,99.90
2022-11-17T01:10:16.649Z,99.90
2022-11-17T01:12:45.103Z,99.90
2022-11-17T01:15:13.556Z,99.90
2022-11-17T01:17:43.436Z,99.90
2022-11-17T01:20:12.583Z,99.90
2022-11-17T01:22:41.306Z,99.90
2022-11-17T01:25:10.295Z,99.90
2022-11-17T01:27:38.810Z,99.90
2022-11-17T01:30:09.046Z,99.90
2022-11-17T01:32:37.746Z,99.90
2022-11-17T01:35:09.173Z,99.90
2022-11-17T01:37:37.861Z,99.90
2022-11-17T01:40:08.312Z,99.90
2022-11-17T01:42:36.978Z,99.90
2022-11-17T01:45:14.937Z,99.90
2022-11-17T01:47:48.776Z,99.90
2022-11-17T01:50:29.811Z,99.90
2022-11-17T01:53:01.135Z,99.90
2022-11-17T01:55:35.990Z,99.90
2022-11-17T01:58:09.777Z,99.90
2022-11-17T02:00:38.669Z,99.90
2022-11-17T02:03:07.397Z,99.90
2022-11-17T02:05:46.750Z,99.90
2022-11-17T02:08:16.908Z,99.90
2022-11-17T02:10:51.268Z,99.90
2022-11-17T02:13:21.122Z,99.90
2022-11-17T02:15:50.261Z,99.90
2022-11-17T02:18:20.570Z,99.90
2022-11-17T02:21:15.652Z,99.90
2022-11-17T02:24:08.604Z,99.90
2022-11-17T02:27:06.177Z,99.90
2022-11-17T02:29:43.092Z,99.90
2022-11-17T02:32:18.025Z,99.90
2022-11-17T02:34:51.620Z,99.90
2022-11-17T02:37:28.288Z,99.90
2022-11-17T02:40:04.388Z,99.90
2022-11-17T02:42:57.450Z,99.90
2022-11-17T02:45:34.025Z,99.90
2022-11-17T02:48:07.846Z,99.90
2022-11-17T02:50:38.148Z,99.90
2022-11-17T02:53:07.691Z,99.90
2022-11-17T02:55:36.721Z,99.90
2022-11-17T02:58:05.377Z,99.90
2022-11-17T03:00:38.229Z,99.90
2022-11-17T03:03:25.845Z,99.90
2022-11-17T03:06:05.370Z,99.90
2022-11-17T03:08:46.088Z,99.90
2022-11-17T03:11:15.718Z,99.90
2022-11-17T03:13:51.634Z,99.90
2022-11-17T03:16:32.340Z,99.90
2022-11-17T03:19:12.129Z,99.90
2022-11-17T03:21:47.211Z,99.90
2022-11-17T03:24:20.986Z,99.90
2022-11-17T03:26:53.143Z,99.90
2022-11-17T03:29:25.900Z,99.90
2022-11-17T03:32:00.823Z,99.90
2022-11-17T03:34:35.446Z,99.90
2022-11-17T03:37:08.027Z,99.90
2022-11-17T03:39:39.566Z,99.90
2022-11-17T03:42:15.960Z,99.90
2022-11-17T03:44:50.707Z,99.90
2022-11-17T03:47:22.686Z,99.90
2022-11-17T03:49:59.009Z,99.90
2022-11-17T03:52:29.715Z,99.90
2022-11-17T03:54:58.853Z,99.90
2022-11-17T03:57:36.064Z,99.90
2022-11-17T04:00:10.110Z,99.90
2022-11-17T04:02:43.492Z,99.90
2022-11-17T04:05:13.609Z,99.90
2022-11-17T04:07:44.453Z,99.90
2022-11-17T04:10:15.928Z,99.90
2022-11-17T04:13:02.259Z,99.90
2022-11-17T04:15:48.696Z,99.90
2022-11-17T04:18:18.574Z,99.90
2022-11-17T04:20:50.398Z,99.90
2022-11-17T04:23:19.134Z,99.90
2022-11-17T04:26:07.353Z,99.90
2022-11-17T04:28:39.350Z,99.90
2022-11-17T04:31:11.995Z,99.90
2022-11-17T04:33:44.170Z,99.90
2022-11-17T04:36:16.321Z,99.90
2022-11-17T04:38:46.676Z,99.90
2022-11-17T04:41:35.716Z,99.90
2022-11-17T04:44:06.688Z,99.90
2022-11-17T04:46:37.178Z,99.90
2022-11-17T04:49:08.648Z,99.90
2022-11-17T04:51:38.814Z,99.90
2022-11-17T04:54:09.017Z,99.90
2022-11-17T04:56:38.299Z,99.90
2022-11-17T04:59:07.919Z,99.90
2022-11-17T05:01:37.264Z,99.90
2022-11-17T05:04:09.746Z,99.90
2022-11-17T05:06:41.018Z,99.90
2022-11-17T05:09:11.901Z,99.90
2022-11-17T05:11:58.318Z,99.90
2022-11-17T05:14:28.795Z,99.90
2022-11-17T05:17:09.369Z,99.90
2022-11-17T05:19:44.499Z,99.90
2022-11-17T05:22:33.349Z,99.90
2022-11-17T05:25:01.872Z,99.90
2022-11-17T05:27:30.497Z,99.90
2022-11-17T05:29:59.262Z,99.90
2022-11-17T05:32:27.738Z,99.90
2022-11-17T05:34:57.861Z,99.90
2022-11-17T05:37:26.584Z,99.90
2022-11-17T05:39:55.161Z,99.90
2022-11-17T05:42:23.658Z,99.90
2022-11-17T05:44:52.165Z,99.90
2022-11-17T05:47:20.845Z,99.90
2022-11-17T05:49:49.333Z,99.90
2022-11-17T05:52:19.393Z,99.90
2022-11-17T05:54:47.851Z,99.90
2022-11-17T05:57:24.196Z,99.90
2022-11-17T05:59:57.914Z,99.90
2022-11-17T06:02:30.514Z,99.90
2022-11-17T06:04:59.168Z,99.90
2022-11-17T06:07:29.420Z,99.90
2022-11-17T06:09:58.832Z,99.90
2022-11-17T06:12:27.329Z,99.90
2022-11-17T06:14:55.872Z,99.90
2022-11-17T06:17:30.513Z,99.90
2022-11-17T06:20:02.821Z,99.90
2022-11-17T06:22:33.603Z,99.90
2022-11-17T06:25:05.255Z,99.90
2022-11-17T06:27:34.784Z,99.90
2022-11-17T06:30:06.818Z,99.90
2022-11-17T06:32:38.227Z,99.90
2022-11-17T06:35:09.249Z,99.90
2022-11-17T06:37:39.097Z,99.90
2022-11-17T06:40:10.266Z,99.90
2022-11-17T06:42:58.278Z,99.90
2022-11-17T06:45:26.786Z,99.90
2022-11-17T06:47:55.674Z,99.90
2022-11-17T06:50:24.186Z,99.90
2022-11-17T06:52:58.001Z,99.90
2022-11-17T06:55:27.229Z,99.90
2022-11-17T06:58:01.494Z,99.90
2022-11-17T07:00:31.422Z,99.90
2022-11-17T07:03:03.686Z,99.90
2022-11-17T07:05:33.966Z,99.90
2022-11-17T07:08:08.351Z,99.90
2022-11-17T07:10:37.865Z,99.90
2022-11-17T07:13:06.397Z,99.90
2022-11-17T07:15:35.119Z,99.90
2022-11-17T07:18:03.589Z,99.90
2022-11-17T07:20:32.028Z,99.90
2022-11-17T07:23:01.207Z,99.90
2022-11-17T07:25:31.290Z,99.90
2022-11-17T07:28:01.037Z,99.90
2022-11-17T07:30:30.033Z,99.90
2022-11-17T07:33:00.106Z,99.90
2022-11-17T07:35:29.448Z,99.90
2022-11-17T07:38:01.527Z,99.90
2022-11-17T07:40:31.938Z,99.90
2022-11-17T07:43:01.133Z,99.90
2022-11-17T07:45:31.875Z,99.90
2022-11-17T07:48:02.701Z,99.90
2022-11-17T07:50:31.456Z,99.90
2022-11-17T07:53:00.624Z,99.90
2022-11-17T07:55:30.603Z,99.90
2022-11-17T07:58:00.873Z,99.90
2022-11-17T08:00:31.613Z,99.90
2022-11-17T08:03:03.874Z,99.90
2022-11-17T08:05:35.878Z,99.90
2022-11-17T08:08:09.627Z,99.90
2022-11-17T08:10:39.491Z,99.90
2022-11-17T08:13:08.113Z,99.90
2022-11-17T08:15:37.202Z,99.90
2022-11-17T08:18:06.284Z,99.90
2022-11-17T08:20:34.774Z,99.90
2022-11-17T08:23:03.268Z,99.90
2022-11-17T08:25:31.758Z,99.90
2022-11-17T08:28:01.642Z,99.90
2022-11-17T08:30:30.725Z,99.90
2022-11-17T08:32:59.186Z,99.90
2022-11-17T08:35:30.735Z,99.90
2022-11-17T08:38:02.801Z,99.90
2022-11-17T08:40:31.494Z,99.90
2022-11-17T08:43:01.882Z,99.90
2022-11-17T08:45:30.728Z,99.90
2022-11-17T08:47:59.480Z,99.90
2022-11-17T08:50:28.258Z,99.90
2022-11-17T08:52:56.740Z,99.90
2022-11-17T08:55:26.415Z,99.90
2022-11-17T08:57:55.023Z,99.90
2022-11-17T09:00:25.079Z,99.90
2022-11-17T09:02:53.766Z,99.90
2022-11-17T09:05:22.257Z,99.90
2022-11-17T09:07:50.836Z,99.90
2022-11-17T09:10:19.609Z,99.90
2022-11-17T09:12:48.372Z,99.90
2022-11-17T09:15:17.002Z,99.90
2022-11-17T09:17:48.952Z,99.90
2022-11-17T09:20:18.649Z,99.90
2022-11-17T09:22:47.397Z,99.90
2022-11-17T09:25:16.943Z,99.90
2022-11-17T09:27:45.433Z,99.90
2022-11-17T09:30:15.718Z,99.90
2022-11-17T09:32:44.466Z,99.90
2022-11-17T09:35:14.308Z,99.90
2022-11-17T09:37:42.830Z,99.90
2022-11-17T09:40:17.741Z,99.90
2022-11-17T09:42:47.442Z,99.90
2022-11-17T09:45:23.081Z,99.90
2022-11-17T09:48:18.414Z,99.90
2022-11-17T09:50:51.977Z,99.90
2022-11-17T09:53:28.127Z,99.90
2022-11-17T09:56:01.724Z,99.90
2022-11-17T09:58:37.950Z,99.90
2022-11-17T10:01:07.973Z,99.90
2022-11-17T10:03:41.955Z,99.90
2022-11-17T10:06:19.716Z,99.90
2022-11-17T10:09:00.552Z,99.90
2022-11-17T10:11:32.701Z,99.90
2022-11-17T10:14:05.441Z,99.90
2022-11-17T10:16:34.158Z,99.90
2022-11-17T10:19:04.053Z,99.90
2022-11-17T10:21:34.145Z,99.90
2022-11-17T10:24:02.626Z,99.90
2022-11-17T10:26:45.586Z,99.90
2022-11-17T10:29:16.939Z,99.90
2022-11-17T10:31:47.522Z,99.90
2022-11-17T10:34:40.258Z,99.90
2022-11-17T10:37:28.752Z,99.90
2022-11-17T10:40:24.733Z,99.90
2022-11-17T10:43:21.403Z,99.90
2022-11-17T10:45:53.933Z,99.90
2022-11-17T10:48:29.442Z,99.90
2022-11-17T10:51:00.165Z,99.90
2022-11-17T10:53:44.574Z,99.90
2022-11-17T10:56:17.837Z,99.90
2022-11-17T10:59:01.500Z,99.90
2022-11-17T11:01:33.862Z,99.90
2022-11-17T11:04:03.920Z,99.90
2022-11-17T11:06:33.894Z,99.90
2022-11-17T11:09:08.416Z,99.90
2022-11-17T11:11:46.553Z,99.90
2022-11-17T11:14:21.940Z,99.90
2022-11-17T11:16:52.292Z,99.90
2022-11-17T11:19:22.009Z,99.90
2022-11-17T11:22:27.738Z,99.90
2022-11-17T11:25:11.416Z,99.90
2022-11-17T11:27:59.463Z,99.90
2022-11-17T11:30:29.148Z,99.90
2022-11-17T11:33:23.660Z,99.90
2022-11-17T11:36:21.196Z,99.90
2022-11-17T11:39:01.100Z,99.90
2022-11-17T11:42:07.653Z,99.90
2022-11-17T11:44:55.030Z,99.90
2022-11-17T11:47:41.199Z,99.90
2022-11-17T11:50:18.050Z,99.90
2022-11-17T11:52:52.845Z,99.90
2022-11-17T11:55:26.463Z,99.90
2022-11-17T11:58:03.778Z,99.90
2022-11-17T12:00:33.061Z,99.90
2022-11-17T12:03:15.940Z,99.90
2022-11-17T12:06:00.202Z,99.90
2022-11-17T12:08:38.957Z,99.90
2022-11-17T12:11:27.018Z,99.90
2022-11-17T12:13:58.809Z,99.90
2022-11-17T12:16:32.226Z,99.90
2022-11-17T12:19:01.971Z,99.90
2022-11-17T12:21:31.154Z,99.60
2022-11-17T12:24:15.184Z,99.90
2022-11-17T12:26:43.859Z,99.90
2022-11-17T12:29:33.013Z,99.90
2022-11-17T12:32:03.856Z,99.90
2022-11-17T12:34:37.629Z,99.90
2022-11-17T12:37:27.473Z,99.90
2022-11-17T12:40:08.847Z,99.90
2022-11-17T12:42:38.457Z,99.90
2022-11-17T12:45:11.897Z,99.90
2022-11-17T12:47:46.171Z,99.90
2022-11-17T12:50:39.089Z,99.90
2022-11-17T12:53:39.522Z,99.90
2022-11-17T12:56:37.836Z,99.90
2022-11-17T12:59:40.218Z,99.00
2022-11-17T13:02:37.416Z,99.90
2022-11-17T13:05:14.608Z,99.90
2022-11-17T13:07:43.542Z,99.80
2022-11-17T13:10:27.205Z,99.90
2022-11-17T13:13:12.943Z,99.90
2022-11-17T13:15:44.082Z,99.90
2022-11-17T13:18:25.361Z,99.90
2022-11-17T13:20:53.870Z,99.90
2022-11-17T13:23:26.135Z,99.90
2022-11-17T13:26:11.332Z,99.90
2022-11-17T13:28:39.790Z,99.90
2022-11-17T13:31:14.383Z,99.40
2022-11-17T13:33:44.308Z,99.10
2022-11-17T13:36:24.939Z,95.80
2022-11-17T13:38:57.321Z,96.10
2022-11-17T13:41:27.955Z,99.70
2022-11-17T13:43:57.188Z,99.90
2022-11-17T13:46:25.721Z,97.70
2022-11-17T13:48:55.870Z,96.30
2022-11-17T13:51:35.330Z,96.40
2022-11-17T13:54:07.689Z,97.90
2022-11-17T13:56:39.246Z,99.90
2022-11-17T13:59:24.108Z,99.10
2022-11-17T14:02:31.354Z,98.70
2022-11-17T14:05:25.377Z,99.90
2022-11-17T14:07:57.090Z,99.90
2022-11-17T14:10:34.923Z,98.60
2022-11-17T14:13:27.204Z,99.30
2022-11-17T14:15:59.542Z,99.60
2022-11-17T14:18:37.605Z,99.50
2022-11-17T14:21:13.843Z,99.90
2022-11-17T14:23:43.685Z,99.90
2022-11-17T14:26:23.515Z,99.90
2022-11-17T14:28:53.620Z,97.80
2022-11-17T14:31:22.156Z,99.90
2022-11-17T14:33:51.148Z,99.50
2022-11-17T14:36:21.275Z,98.70
2022-11-17T14:38:49.880Z,99.30
2022-11-17T14:41:19.934Z,97.50
2022-11-17T14:43:48.884Z,97.40
2022-11-17T14:46:23.772Z,98.50
2022-11-17T14:48:53.096Z,98.70
2022-11-17T14:51:24.006Z,97.10
2022-11-17T14:53:54.153Z,96.80
2022-11-17T14:56:25.092Z,99.90
2022-11-17T14:58:56.850Z,99.10
2022-11-17T15:01:29.002Z,98.10
2022-11-17T15:03:59.288Z,98.60
2022-11-17T15:06:29.917Z,99.60
2022-11-17T15:09:01.180Z,99.00
2022-11-17T15:11:38.102Z,99.90
2022-11-17T15:14:08.492Z,99.90
2022-11-17T15:16:36.988Z,99.90
2022-11-17T15:19:06.795Z,99.50
2022-11-17T15:21:36.908Z,99.00
2022-11-17T15:24:06.532Z,98.10
2022-11-17T15:26:36.030Z,99.30
2022-11-17T15:29:04.959Z,99.80
2022-11-17T15:31:33.482Z,98.60
2022-11-17T15:34:03.235Z,99.90
2022-11-17T15:36:32.107Z,99.90
2022-11-17T15:39:02.065Z,99.90
2022-11-17T15:41:33.011Z,99.50
2022-11-17T15:44:01.933Z,99.90
2022-11-17T15:46:30.535Z,99.50
2022-11-17T15:48:59.080Z,99.90
2022-11-17T15:51:29.085Z,99.90
2022-11-17T15:54:01.114Z,99.90
2022-11-17T15:56:32.022Z,99.50
2022-11-17T15:59:03.299Z,99.90
2022-11-17T16:01:33.545Z,98.70
2022-11-17T16:04:04.355Z,99.20
2022-11-17T16:06:35.252Z,99.80
2022-11-17T16:09:06.575Z,99.90
2022-11-17T16:11:35.872Z,99.90
2022-11-17T16:14:05.629Z,99.90
2022-11-17T16:16:36.577Z,99.90
2022-11-17T16:19:06.406Z,99.90
2022-11-17T16:21:35.094Z,99.90
2022-11-17T16:24:05.479Z,98.70
2022-11-17T16:26:33.977Z,97.80
2022-11-17T16:29:05.357Z,98.80
2022-11-17T16:31:35.573Z,98.90
2022-11-17T16:34:06.538Z,99.90
2022-11-17T16:36:37.152Z,99.90
2022-11-17T16:39:09.936Z,99.90
2022-11-17T16:41:41.119Z,99.90
2022-11-17T16:44:12.320Z,99.90
2022-11-17T16:46:44.168Z,99.90
2022-11-17T16:49:16.233Z,99.90
2022-11-17T16:51:49.340Z,99.80
2022-11-17T16:54:19.951Z,99.90
2022-11-17T16:56:48.543Z,98.90
2022-11-17T16:59:17.491Z,99.90
2022-11-17T17:01:48.955Z,99.90
2022-11-17T17:04:21.457Z,99.90
2022-11-17T17:06:50.479Z,99.90
2022-11-17T17:09:26.566Z,99.90
2022-11-17T17:11:56.672Z,99.70
2022-11-17T17:14:25.392Z,99.50
2022-11-17T17:16:54.127Z,99.90
2022-11-17T17:19:22.637Z,99.90
2022-11-17T17:21:51.399Z,99.90
2022-11-17T17:24:21.264Z,99.90
2022-11-17T17:26:49.777Z,99.90
2022-11-17T17:29:18.776Z,99.90
2022-11-17T17:31:47.424Z,99.90
2022-11-17T17:34:15.949Z,99.90
2022-11-17T17:36:44.418Z,99.90
2022-11-17T17:39:16.736Z,99.90
2022-11-17T17:41:46.910Z,99.90
2022-11-17T17:44:18.983Z,99.90
2022-11-17T17:46:48.974Z,99.90
2022-11-17T17:49:19.404Z,99.90
2022-11-17T17:51:48.306Z,99.90
2022-11-17T17:54:20.161Z,99.90
2022-11-17T17:56:50.241Z,99.90
2022-11-17T17:59:20.439Z,99.90
2022-11-17T18:01:49.890Z,99.90
2022-11-17T18:04:18.362Z,99.90
2022-11-17T18:06:48.915Z,99.90
2022-11-17T18:09:19.726Z,99.90
2022-11-17T18:11:51.386Z,99.90
2022-11-17T18:14:24.563Z,99.90
2022-11-17T18:16:54.434Z,99.90
2022-11-17T18:19:27.101Z,99.90
2022-11-17T18:21:58.859Z,99.90
2022-11-17T18:24:27.410Z,99.90
2022-11-17T18:26:57.300Z,99.90
2022-11-17T18:29:26.216Z,99.90
2022-11-17T18:31:54.944Z,99.90
2022-11-17T18:34:25.550Z,99.90
2022-11-17T18:36:56.730Z,99.90
2022-11-17T18:39:25.532Z,99.90
2022-11-17T18:41:54.008Z,99.90
2022-11-17T18:44:24.075Z,99.90
2022-11-17T18:46:52.592Z,99.90
2022-11-17T18:49:21.181Z,99.90
2022-11-17T18:51:50.628Z,99.90
2022-11-17T18:54:19.103Z,99.90
2022-11-17T18:56:50.174Z,99.90
2022-11-17T18:59:21.805Z,99.90
2022-11-17T19:01:52.055Z,99.90
2022-11-17T19:04:20.902Z,99.90
2022-11-17T19:06:50.221Z,99.90
2022-11-17T19:09:18.869Z,99.90
2022-11-17T19:11:47.569Z,99.90
2022-11-17T19:14:16.259Z,99.90
2022-11-17T19:16:45.375Z,99.90
2022-11-17T19:19:16.069Z,99.90
2022-11-17T19:21:45.943Z,99.90
2022-11-17T19:24:15.661Z,99.90
2022-11-17T19:26:44.246Z,99.90
2022-11-17T19:29:17.481Z,99.90
2022-11-17T19:31:46.549Z,99.90
2022-11-17T19:34:17.169Z,99.90
2022-11-17T19:36:45.905Z,99.90
2022-11-17T19:39:15.453Z,99.90
2022-11-17T19:41:45.499Z,99.90
2022-11-17T19:44:14.021Z,99.90
2022-11-17T19:46:43.362Z,99.90
2022-11-17T19:49:13.279Z,99.90
2022-11-17T19:51:43.221Z,99.90
2022-11-17T19:54:13.633Z,99.90
2022-11-17T19:56:42.366Z,99.90
2022-11-17T19:59:15.643Z,99.90
2022-11-17T20:01:45.285Z,99.90
2022-11-17T20:04:13.814Z,99.90
2022-11-17T20:06:43.675Z,99.90
2022-11-17T20:09:15.550Z,99.90
2022-11-17T20:11:44.429Z,99.90
2022-11-17T20:14:14.444Z,99.90
2022-11-17T20:16:43.010Z,99.90
2022-11-17T20:19:12.397Z,99.90
2022-11-17T20:21:41.180Z,99.90
2022-11-17T20:24:11.796Z,99.90
2022-11-17T20:26:43.246Z,99.90
2022-11-17T20:29:11.694Z,99.90
2022-11-17T20:31:40.405Z,99.90
2022-11-17T20:34:12.217Z,99.90
2022-11-17T20:36:40.981Z,99.90
2022-11-17T20:39:11.476Z,99.90
2022-11-17T20:41:40.180Z,99.90
2022-11-17T20:44:23.929Z,99.90
2022-11-17T20:46:55.142Z,99.90
2022-11-17T20:49:24.326Z,99.90
2022-11-17T20:51:52.808Z,99.90
2022-11-17T20:54:22.893Z,99.90
2022-11-17T20:56:51.623Z,99.90
2022-11-17T20:59:20.587Z,99.90
2022-11-17T21:01:50.526Z,99.90
2022-11-17T21:04:19.426Z,99.90
2022-11-17T21:06:48.109Z,99.90
2022-11-17T21:09:17.102Z,99.90
2022-11-17T21:11:58.897Z,99.90
2022-11-17T21:14:28.845Z,99.90
2022-11-17T21:17:00.725Z,99.90
2022-11-17T21:19:31.698Z,99.90
2022-11-17T21:22:02.692Z,99.90
2022-11-17T21:24:31.207Z,99.90
2022-11-17T21:27:01.268Z,99.90
2022-11-17T21:29:29.775Z,99.90
2022-11-17T21:31:58.214Z,99.90
2022-11-17T21:34:26.923Z,99.90
2022-11-17T21:36:55.464Z,99.90
2022-11-17T21:39:24.663Z,99.90
2022-11-17T21:41:53.205Z,99.90
2022-11-17T21:44:23.171Z,99.90
2022-11-17T21:46:51.847Z,99.90
2022-11-17T21:49:20.774Z,99.90
2022-11-17T21:51:49.240Z,99.90
2022-11-17T21:54:17.762Z,99.90
2022-11-17T21:56:46.899Z,99.90
2022-11-17T21:59:17.091Z,99.90
2022-11-17T22:01:47.367Z,99.90
2022-11-17T22:04:16.079Z,99.90
2022-11-17T22:06:44.808Z,99.90
2022-11-17T22:09:14.166Z,99.90
2022-11-17T22:11:43.190Z,99.90
2022-11-17T22:14:14.088Z,99.90
2022-11-17T22:16:44.966Z,99.90
2022-11-17T22:19:17.021Z,99.90
2022-11-17T22:21:46.884Z,99.90
2022-11-17T22:24:15.927Z,99.90
2022-11-17T22:26:45.584Z,99.90
2022-11-17T22:29:17.350Z,99.90
2022-11-17T22:31:46.574Z,99.90
2022-11-17T22:34:17.312Z,99.90
2022-11-17T22:36:46.133Z,99.90
2022-11-17T22:39:14.982Z,99.90
2022-11-17T22:41:43.760Z,99.90
2022-11-17T22:44:15.516Z,99.90
2022-11-17T22:46:44.340Z,99.90
2022-11-17T22:49:13.164Z,99.90
2022-11-17T22:52:00.452Z,99.90
2022-11-17T22:54:29.196Z,99.90
2022-11-17T22:56:58.277Z,99.90
2022-11-17T22:59:27.280Z,99.90
2022-11-17T23:01:56.574Z,99.90
2022-11-17T23:04:25.065Z,99.90
2022-11-17T23:06:55.210Z,99.90
2022-11-17T23:09:23.746Z,99.90
2022-11-17T23:11:52.404Z,99.90
2022-11-17T23:14:20.919Z,99.90
2022-11-17T23:16:49.937Z,99.90
2022-11-17T23:19:18.558Z,99.90
2022-11-17T23:21:47.127Z,99.90
2022-11-17T23:24:17.008Z,99.90
2022-11-17T23:26:45.506Z,99.90
2022-11-17T23:29:14.514Z,99.90
2022-11-17T23:31:43.196Z,99.90
2022-11-17T23:34:12.424Z,99.90
2022-11-17T23:36:40.982Z,99.90
2022-11-17T23:39:09.687Z,99.90
2022-11-17T23:41:39.552Z,99.90
2022-11-17T23:44:08.076Z,99.90
2022-11-17T23:46:36.551Z,99.90
2022-11-17T23:49:05.431Z,99.90
2022-11-17T23:51:33.979Z,99.90
2022-11-17T23:54:03.558Z,99.90
2022-11-17T23:56:34.572Z,99.90
2022-11-17T23:59:05.252Z,99.90
